createdAt,value
2018-08-09T00:00:10.502Z,65.20
2018-08-09T00:02:39.768Z,66.00
2018-08-09T00:05:08.341Z,66.00
2018-08-09T00:07:37.093Z,65.40
2018-08-09T00:10:07.419Z,65.40
2018-08-09T00:12:36.899Z,65.40
2018-08-09T00:15:06.517Z,65.40
2018-08-09T00:17:35.121Z,65.10
2018-08-09T00:20:04.706Z,65.20
2018-08-09T00:22:33.401Z,65.80
2018-08-09T00:25:01.979Z,65.90
2018-08-09T00:27:30.348Z,66.90
2018-08-09T00:29:59.412Z,66.40
2018-08-09T00:32:28.049Z,66.20
2018-08-09T00:34:57.239Z,65.80
2018-08-09T00:37:26.455Z,65.20
2018-08-09T00:39:56.683Z,66.10
2018-08-09T00:42:24.755Z,64.40
2018-08-09T00:44:55.022Z,65.00
2018-08-09T00:47:23.720Z,65.50
2018-08-09T00:49:53.178Z,65.20
2018-08-09T00:52:22.498Z,66.20
2018-08-09T00:54:51.110Z,66.10
2018-08-09T00:57:23.067Z,67.20
2018-08-09T00:59:52.520Z,66.70
2018-08-09T01:02:23.967Z,66.40
2018-08-09T01:04:52.586Z,66.60
2018-08-09T01:07:21.212Z,67.00
2018-08-09T01:09:50.546Z,67.50
2018-08-09T01:12:19.238Z,66.30
2018-08-09T01:14:47.895Z,67.00
2018-08-09T01:17:17.421Z,66.00
2018-08-09T01:19:46.177Z,66.50
2018-08-09T01:22:14.667Z,66.70
2018-08-09T01:24:43.823Z,66.30
2018-08-09T01:27:13.375Z,66.50
2018-08-09T01:29:42.030Z,66.10
2018-08-09T01:32:10.698Z,66.10
2018-08-09T01:34:39.338Z,65.80
2018-08-09T01:37:09.196Z,66.30
2018-08-09T01:39:38.078Z,67.20
2018-08-09T01:42:28.503Z,67.30
2018-08-09T01:44:57.811Z,67.30
2018-08-09T01:47:26.469Z,66.40
2018-08-09T01:49:55.504Z,67.20
2018-08-09T01:52:23.984Z,67.70
2018-08-09T01:54:52.263Z,67.10
2018-08-09T01:57:21.651Z,67.80
2018-08-09T01:59:50.943Z,67.00
2018-08-09T02:02:20.195Z,67.00
2018-08-09T02:04:50.441Z,67.20
2018-08-09T02:07:19.401Z,67.90
2018-08-09T02:09:47.926Z,67.50
2018-08-09T02:12:16.478Z,66.70
2018-08-09T02:14:45.922Z,66.70
2018-08-09T02:17:15.024Z,66.40
2018-08-09T02:19:43.732Z,66.20
2018-08-09T02:22:12.326Z,66.00
2018-08-09T02:24:41.322Z,65.40
2018-08-09T02:27:09.642Z,65.20
2018-08-09T02:29:39.195Z,64.10
2018-08-09T02:32:07.964Z,65.10
2018-08-09T02:34:36.797Z,65.40
2018-08-09T02:37:06.263Z,65.30
2018-08-09T02:39:34.328Z,65.20
2018-08-09T02:42:04.093Z,65.20
2018-08-09T02:44:32.785Z,65.70
2018-08-09T02:47:03.142Z,65.70
2018-08-09T02:49:31.798Z,65.50
2018-08-09T02:52:00.710Z,65.50
2018-08-09T02:54:29.844Z,66.00
2018-08-09T02:56:58.921Z,65.20
2018-08-09T02:59:27.539Z,64.50
2018-08-09T03:01:56.134Z,64.60
2018-08-09T03:04:26.854Z,63.90
2018-08-09T03:06:55.434Z,64.50
2018-08-09T03:09:24.323Z,64.10
2018-08-09T03:11:52.963Z,64.10
2018-08-09T03:14:22.318Z,64.40
2018-08-09T03:16:50.914Z,65.40
2018-08-09T03:19:19.535Z,64.70
2018-08-09T03:21:48.106Z,64.60
2018-08-09T03:24:17.287Z,65.60
2018-08-09T03:26:46.253Z,65.20
2018-08-09T03:29:14.938Z,67.00
2018-08-09T03:31:43.557Z,66.00
2018-08-09T03:34:12.946Z,66.40
2018-08-09T03:36:43.215Z,66.70
2018-08-09T03:39:12.450Z,67.50
2018-08-09T03:41:41.527Z,67.40
2018-08-09T03:44:11.017Z,67.20
2018-08-09T03:46:39.681Z,68.10
2018-08-09T03:49:10.201Z,67.60
2018-08-09T03:51:40.542Z,67.10
2018-08-09T03:54:10.693Z,67.10
2018-08-09T03:56:39.736Z,67.20
2018-08-09T03:59:09.236Z,66.10
2018-08-09T04:01:37.711Z,66.90
2018-08-09T04:04:07.908Z,66.50
2018-08-09T04:06:36.583Z,67.20
2018-08-09T04:09:09.475Z,67.60
2018-08-09T04:11:38.391Z,67.60
2018-08-09T04:14:07.159Z,68.00
2018-08-09T04:16:36.427Z,68.70
2018-08-09T04:19:05.111Z,68.10
2018-08-09T04:21:33.820Z,68.00
2018-08-09T04:24:02.231Z,67.40
2018-08-09T04:26:31.731Z,66.80
2018-08-09T04:29:01.266Z,66.50
2018-08-09T04:31:31.479Z,66.00
2018-08-09T04:34:01.539Z,65.80
2018-08-09T04:36:30.326Z,65.30
2018-08-09T04:38:59.635Z,64.70
2018-08-09T04:41:28.923Z,64.40
2018-08-09T04:43:57.291Z,64.30
2018-08-09T04:46:26.427Z,63.30
2018-08-09T04:48:54.618Z,63.70
2018-08-09T04:51:24.044Z,63.30
2018-08-09T04:53:53.678Z,63.90
2018-08-09T04:56:23.118Z,63.60
2018-08-09T04:58:51.862Z,63.10
2018-08-09T05:01:21.228Z,63.30
2018-08-09T05:03:50.940Z,63.20
2018-08-09T05:06:19.626Z,62.60
2018-08-09T05:08:49.157Z,62.60
2018-08-09T05:11:18.811Z,62.80
2018-08-09T05:13:48.398Z,62.50
2018-08-09T05:16:17.092Z,63.20
2018-08-09T05:18:46.379Z,63.00
2018-08-09T05:21:14.936Z,63.30
2018-08-09T05:23:43.783Z,62.60
2018-08-09T05:26:12.447Z,62.20
2018-08-09T05:28:41.062Z,61.70
2018-08-09T05:31:12.397Z,61.50
2018-08-09T05:33:41.788Z,60.70
2018-08-09T05:36:11.508Z,60.40
2018-08-09T05:38:41.206Z,60.90
2018-08-09T05:41:10.857Z,61.00
2018-08-09T05:43:39.124Z,59.70
2018-08-09T05:46:08.707Z,59.60
2018-08-09T05:48:37.280Z,59.00
2018-08-09T05:51:06.734Z,58.40
2018-08-09T05:53:35.422Z,59.20
2018-08-09T05:56:04.457Z,58.80
2018-08-09T05:58:34.068Z,58.40
2018-08-09T06:01:05.008Z,58.10
2018-08-09T06:03:34.025Z,58.10
2018-08-09T06:06:02.819Z,58.00
2018-08-09T06:08:31.387Z,57.30
2018-08-09T06:11:01.305Z,57.70
2018-08-09T06:13:33.677Z,56.70
2018-08-09T06:16:02.245Z,56.70
2018-08-09T06:18:30.900Z,56.50
2018-08-09T06:20:59.593Z,56.00
2018-08-09T06:23:28.241Z,55.00
2018-08-09T06:25:56.805Z,54.70
2018-08-09T06:28:28.556Z,53.80
2018-08-09T06:30:58.208Z,54.80
2018-08-09T06:33:27.927Z,53.50
2018-08-09T06:35:58.364Z,53.60
2018-08-09T06:38:27.886Z,53.20
2018-08-09T06:40:58.051Z,53.00
2018-08-09T06:43:29.711Z,52.20
2018-08-09T06:45:58.891Z,52.20
2018-08-09T06:48:28.318Z,51.60
2018-08-09T06:50:58.047Z,52.00
2018-08-09T06:53:27.051Z,51.20
2018-08-09T06:55:55.981Z,50.30
2018-08-09T06:58:25.434Z,48.90
2018-08-09T07:00:54.634Z,49.20
2018-08-09T07:03:23.217Z,48.40
2018-08-09T07:05:53.799Z,48.40
2018-08-09T07:08:25.048Z,47.00
2018-08-09T07:10:55.475Z,46.80
2018-08-09T07:13:24.837Z,46.30
2018-08-09T07:15:53.449Z,46.80
2018-08-09T07:18:22.968Z,46.50
2018-08-09T07:20:52.324Z,46.50
2018-08-09T07:23:20.989Z,47.20
2018-08-09T07:25:51.042Z,46.20
2018-08-09T07:28:19.371Z,46.00
2018-08-09T07:30:48.067Z,44.70
2018-08-09T07:33:17.308Z,44.80
2018-08-09T07:35:46.074Z,45.10
2018-08-09T07:38:14.590Z,45.70
2018-08-09T07:40:43.616Z,44.90
2018-08-09T07:43:12.964Z,45.00
2018-08-09T07:45:41.548Z,45.90
2018-08-09T07:48:11.970Z,44.70
2018-08-09T07:50:44.470Z,44.20
2018-08-09T07:53:13.302Z,44.60
2018-08-09T07:55:41.949Z,43.80
2018-08-09T07:58:11.237Z,44.50
2018-08-09T08:00:39.861Z,44.50
2018-08-09T08:03:08.186Z,44.10
2018-08-09T08:05:38.371Z,44.40
2018-08-09T08:08:08.306Z,44.10
2018-08-09T08:10:36.998Z,43.50
2018-08-09T08:13:05.710Z,42.10
2018-08-09T08:15:34.499Z,41.80
2018-08-09T08:18:03.392Z,41.40
2018-08-09T08:20:34.205Z,40.20
2018-08-09T08:23:04.083Z,39.80
2018-08-09T08:25:33.240Z,39.70
2018-08-09T08:28:02.430Z,39.50
2018-08-09T08:30:31.133Z,39.40
2018-08-09T08:33:00.985Z,39.30
2018-08-09T08:35:31.293Z,40.50
2018-08-09T08:38:01.913Z,40.80
2018-08-09T08:40:30.579Z,40.80
2018-08-09T08:43:00.407Z,40.90
2018-08-09T08:45:29.838Z,40.70
2018-08-09T08:47:59.589Z,41.00
2018-08-09T08:50:29.679Z,40.40
2018-08-09T08:52:59.028Z,39.80
2018-08-09T08:55:30.212Z,39.90
2018-08-09T08:57:59.684Z,39.60
2018-08-09T09:00:30.278Z,40.70
2018-08-09T09:02:59.820Z,40.40
2018-08-09T09:05:31.174Z,40.40
2018-08-09T09:08:01.445Z,40.70
2018-08-09T09:10:31.826Z,41.10
2018-08-09T09:13:00.852Z,42.10
2018-08-09T09:15:29.856Z,42.40
2018-08-09T09:17:58.526Z,44.40
2018-08-09T09:20:27.904Z,45.10
2018-08-09T09:22:56.633Z,46.80
2018-08-09T09:25:26.339Z,49.00
2018-08-09T09:27:55.113Z,49.60
2018-08-09T09:30:23.849Z,50.40
2018-08-09T09:32:52.805Z,51.00
2018-08-09T09:35:21.572Z,50.90
2018-08-09T09:37:50.290Z,50.80
2018-08-09T09:40:19.208Z,52.20
2018-08-09T09:42:47.978Z,51.90
2018-08-09T09:45:17.018Z,50.60
2018-08-09T09:47:45.699Z,49.90
2018-08-09T09:50:14.867Z,47.60
2018-08-09T09:52:43.595Z,44.80
2018-08-09T09:55:12.231Z,42.00
2018-08-09T09:57:41.097Z,39.10
2018-08-09T10:00:16.219Z,37.70
2018-08-09T10:02:45.435Z,36.40
2018-08-09T10:05:14.867Z,33.60
2018-08-09T10:07:44.019Z,31.80
2018-08-09T10:10:14.039Z,31.80
2018-08-09T10:12:42.680Z,30.20
2018-08-09T10:15:11.860Z,30.00
2018-08-09T10:17:40.718Z,31.40
2018-08-09T10:20:10.573Z,31.50
2018-08-09T10:22:39.349Z,31.30
2018-08-09T10:25:08.273Z,31.40
2018-08-09T10:27:37.077Z,30.80
2018-08-09T10:30:07.596Z,31.30
2018-08-09T10:32:37.263Z,31.50
2018-08-09T10:35:06.350Z,32.50
2018-08-09T10:37:37.797Z,32.40
2018-08-09T10:40:06.548Z,32.20
2018-08-09T10:42:36.314Z,32.30
2018-08-09T10:45:06.023Z,32.70
2018-08-09T10:47:35.089Z,33.10
2018-08-09T10:50:05.735Z,34.40
2018-08-09T10:52:34.629Z,35.00
2018-08-09T10:55:03.705Z,35.10
2018-08-09T10:57:32.812Z,34.90
2018-08-09T11:00:01.586Z,34.70
2018-08-09T11:02:30.299Z,34.00
2018-08-09T11:05:01.171Z,33.30
2018-08-09T11:07:29.946Z,32.80
2018-08-09T11:09:58.522Z,32.20
2018-08-09T11:12:27.874Z,32.60
2018-08-09T11:14:57.393Z,33.00
2018-08-09T11:17:27.128Z,33.10
2018-08-09T11:19:55.820Z,35.80
2018-08-09T11:22:25.533Z,36.90
2018-08-09T11:24:54.935Z,39.00
2018-08-09T11:27:24.665Z,41.10
2018-08-09T11:29:53.317Z,41.30
2018-08-09T11:32:22.298Z,42.80
2018-08-09T11:34:50.988Z,43.80
2018-08-09T11:37:20.492Z,44.00
2018-08-09T11:39:50.777Z,42.90
2018-08-09T11:42:19.518Z,43.20
2018-08-09T11:44:48.808Z,44.00
2018-08-09T11:47:17.415Z,46.00
2018-08-09T11:49:46.217Z,47.20
2018-08-09T11:52:16.211Z,47.80
2018-08-09T11:54:45.076Z,46.80
2018-08-09T11:57:14.459Z,45.20
2018-08-09T11:59:43.170Z,43.70
2018-08-09T12:02:11.931Z,43.30
2018-08-09T12:04:40.948Z,43.00
2018-08-09T12:07:09.862Z,42.10
2018-08-09T12:09:38.778Z,42.20
2018-08-09T12:12:08.627Z,42.50
2018-08-09T12:14:38.389Z,44.30
2018-08-09T12:17:07.520Z,46.00
2018-08-09T12:19:37.126Z,46.20
2018-08-09T12:22:06.900Z,48.40
2018-08-09T12:24:35.334Z,51.70
2018-08-09T12:27:03.923Z,52.30
2018-08-09T12:29:33.198Z,53.40
2018-08-09T12:32:05.833Z,53.90
2018-08-09T12:34:34.545Z,54.90
2018-08-09T12:37:04.437Z,55.80
2018-08-09T12:39:34.788Z,55.40
2018-08-09T12:42:03.163Z,54.70
2018-08-09T12:44:32.948Z,53.40
2018-08-09T12:47:01.749Z,55.00
2018-08-09T12:49:30.686Z,55.70
2018-08-09T12:51:59.502Z,56.40
2018-08-09T12:54:28.487Z,56.80
2018-08-09T12:56:58.034Z,57.30
2018-08-09T12:59:26.899Z,57.60
2018-08-09T13:01:56.527Z,57.70
2018-08-09T13:04:25.909Z,56.90
2018-08-09T13:06:54.846Z,56.20
2018-08-09T13:09:23.283Z,55.60
2018-08-09T13:11:54.074Z,55.20
2018-08-09T13:14:23.594Z,55.00
2018-08-09T13:16:53.893Z,56.40
2018-08-09T13:19:23.259Z,55.90
2018-08-09T13:21:53.433Z,55.90
2018-08-09T13:24:22.724Z,56.20
2018-08-09T13:26:52.145Z,56.10
2018-08-09T13:29:20.919Z,55.50
2018-08-09T13:31:49.977Z,55.30
2018-08-09T13:34:19.084Z,55.00
2018-08-09T13:36:48.291Z,55.50
2018-08-09T13:39:17.808Z,56.20
2018-08-09T13:41:47.732Z,55.50
2018-08-09T13:44:17.032Z,56.00
2018-08-09T13:46:46.779Z,56.30
2018-08-09T13:49:15.543Z,56.90
2018-08-09T13:51:44.315Z,56.90
2018-08-09T13:54:13.985Z,58.10
2018-08-09T13:56:42.718Z,59.20
2018-08-09T13:59:11.398Z,60.20
2018-08-09T14:01:40.354Z,61.00
2018-08-09T14:04:09.757Z,62.00
2018-08-09T14:06:39.079Z,62.00
2018-08-09T14:09:12.076Z,59.60
2018-08-09T14:11:44.955Z,58.50
2018-08-09T14:14:13.779Z,57.20
2018-08-09T14:16:43.979Z,57.00
2018-08-09T14:19:13.484Z,57.00
2018-08-09T14:21:42.824Z,57.10
2018-08-09T14:24:12.375Z,57.00
2018-08-09T14:26:41.700Z,57.60
2018-08-09T14:29:12.588Z,56.90
2018-08-09T14:31:41.346Z,58.20
2018-08-09T14:34:10.001Z,57.80
2018-08-09T14:36:39.868Z,58.20
2018-08-09T14:39:11.064Z,58.20
2018-08-09T14:41:40.742Z,58.90
2018-08-09T14:44:09.570Z,59.30
2018-08-09T14:46:38.487Z,59.20
2018-08-09T14:49:07.275Z,59.00
2018-08-09T14:51:36.142Z,58.10
2018-08-09T14:54:05.223Z,59.50
2018-08-09T14:56:33.961Z,59.10
2018-08-09T14:59:02.857Z,58.90
2018-08-09T15:01:32.417Z,58.50
2018-08-09T15:04:02.200Z,58.40
2018-08-09T15:06:31.873Z,58.30
2018-08-09T15:09:01.751Z,56.80
2018-08-09T15:11:30.805Z,55.70
2018-08-09T15:14:00.940Z,54.80
2018-08-09T15:16:31.673Z,55.00
2018-08-09T15:19:01.225Z,55.10
2018-08-09T15:21:30.957Z,55.50
2018-08-09T15:24:00.514Z,54.70
2018-08-09T15:26:30.431Z,54.10
2018-08-09T15:29:00.103Z,55.10
2018-08-09T15:31:29.872Z,55.00
2018-08-09T15:33:59.462Z,55.70
2018-08-09T15:36:28.216Z,56.50
2018-08-09T15:38:57.505Z,57.90
2018-08-09T15:41:26.383Z,58.20
2018-08-09T15:43:55.680Z,58.70
2018-08-09T15:46:25.247Z,58.10
2018-08-09T15:48:54.389Z,56.70
2018-08-09T15:51:23.251Z,56.20
2018-08-09T15:53:52.079Z,54.90
2018-08-09T15:56:22.049Z,53.70
2018-08-09T15:58:52.110Z,52.20
2018-08-09T16:01:21.029Z,51.60
2018-08-09T16:03:51.075Z,50.90
2018-08-09T16:06:19.778Z,52.00
2018-08-09T16:08:49.531Z,51.50
2018-08-09T16:11:19.222Z,52.40
2018-08-09T16:13:52.303Z,51.30
2018-08-09T16:16:21.233Z,51.70
2018-08-09T16:18:55.107Z,51.70
2018-08-09T16:21:24.871Z,54.40
2018-08-09T16:23:55.285Z,57.00
2018-08-09T16:26:23.759Z,59.00
2018-08-09T16:28:52.645Z,60.80
2018-08-09T16:31:21.734Z,63.50
2018-08-09T16:33:51.784Z,66.60
2018-08-09T16:36:20.555Z,68.30
2018-08-09T16:38:49.448Z,70.90
2018-08-09T16:41:20.576Z,72.60
2018-08-09T16:43:49.375Z,72.30
2018-08-09T16:46:18.275Z,72.60
2018-08-09T16:48:47.504Z,73.20
2018-08-09T16:51:16.878Z,69.90
2018-08-09T16:53:45.480Z,69.40
2018-08-09T16:56:16.299Z,69.00
2018-08-09T16:58:45.857Z,70.60
2018-08-09T17:01:16.139Z,68.30
2018-08-09T17:03:44.877Z,67.20
2018-08-09T17:06:13.593Z,68.20
2018-08-09T17:08:43.164Z,67.90
2018-08-09T17:11:11.516Z,67.20
2018-08-09T17:13:40.105Z,67.00
2018-08-09T17:16:08.843Z,66.80
2018-08-09T17:18:37.819Z,67.00
2018-08-09T17:21:07.202Z,66.70
2018-08-09T17:23:36.797Z,66.70
2018-08-09T17:26:05.083Z,66.20
2018-08-09T17:28:34.393Z,67.50
2018-08-09T17:31:02.987Z,68.00
2018-08-09T17:33:33.445Z,67.40
2018-08-09T17:36:02.439Z,67.60
2018-08-09T17:38:32.324Z,68.80
2018-08-09T17:41:01.947Z,69.50
2018-08-09T17:43:30.359Z,69.80
2018-08-09T17:46:01.549Z,69.80
2018-08-09T17:48:31.288Z,69.70
2018-08-09T17:51:02.733Z,70.70
2018-08-09T17:53:31.829Z,71.00
2018-08-09T17:56:02.206Z,71.90
2018-08-09T17:58:31.124Z,71.60
2018-08-09T18:00:59.744Z,72.30
2018-08-09T18:03:29.779Z,72.10
2018-08-09T18:06:00.530Z,71.10
2018-08-09T18:08:29.596Z,71.80
2018-08-09T18:10:58.286Z,72.10
2018-08-09T18:13:29.526Z,72.00
2018-08-09T18:15:59.538Z,71.30
2018-08-09T18:18:28.296Z,71.60
2018-08-09T18:20:58.500Z,72.30
2018-08-09T18:23:28.703Z,72.50
2018-08-09T18:25:57.518Z,72.70
2018-08-09T18:28:27.011Z,71.50
2018-08-09T18:30:56.608Z,71.00
2018-08-09T18:33:25.548Z,69.60
2018-08-09T18:35:54.248Z,70.20
2018-08-09T18:38:23.956Z,71.40
2018-08-09T18:40:53.084Z,71.00
2018-08-09T18:43:24.562Z,71.20
2018-08-09T18:45:54.225Z,71.00
2018-08-09T18:48:23.202Z,72.20
2018-08-09T18:50:53.821Z,72.80
2018-08-09T18:53:22.366Z,72.80
2018-08-09T18:55:51.047Z,72.80
2018-08-09T18:58:21.779Z,72.60
2018-08-09T19:00:51.635Z,72.90
2018-08-09T19:03:20.180Z,72.60
2018-08-09T19:05:48.924Z,72.80
2018-08-09T19:08:17.983Z,71.20
2018-08-09T19:10:48.219Z,72.30
2018-08-09T19:13:17.093Z,73.50
2018-08-09T19:15:46.702Z,75.00
2018-08-09T19:18:17.394Z,74.70
2018-08-09T19:20:47.185Z,75.90
2018-08-09T19:23:17.140Z,77.00
2018-08-09T19:25:48.541Z,76.90
2018-08-09T19:28:17.136Z,77.20
2018-08-09T19:30:47.037Z,78.00
2018-08-09T19:33:16.795Z,78.20
2018-08-09T19:35:46.759Z,78.80
2018-08-09T19:38:15.525Z,79.70
2018-08-09T19:40:44.037Z,81.40
2018-08-09T19:43:15.052Z,80.20
2018-08-09T19:45:46.845Z,81.90
2018-08-09T19:48:19.700Z,81.50
2018-08-09T19:50:49.502Z,80.90
2018-08-09T19:53:18.287Z,82.30
2018-08-09T19:55:47.612Z,80.50
2018-08-09T19:58:17.784Z,81.60
2018-08-09T20:00:47.287Z,82.60
2018-08-09T20:03:15.856Z,82.40
2018-08-09T20:05:44.616Z,83.50
2018-08-09T20:08:14.375Z,84.10
2018-08-09T20:10:43.278Z,84.00
2018-08-09T20:13:11.784Z,83.60
2018-08-09T20:15:40.628Z,84.70
2018-08-09T20:18:10.117Z,83.60
2018-08-09T20:20:38.914Z,84.40
2018-08-09T20:23:07.908Z,84.20
2018-08-09T20:25:37.371Z,84.50
2018-08-09T20:28:06.414Z,84.80
2018-08-09T20:30:39.554Z,84.60
2018-08-09T20:33:08.680Z,84.20
2018-08-09T20:35:39.139Z,83.40
2018-08-09T20:38:08.147Z,83.40
2018-08-09T20:40:38.029Z,84.90
2018-08-09T20:43:06.928Z,85.90
2018-08-09T20:45:36.485Z,85.60
2018-08-09T20:48:07.701Z,85.60
2018-08-09T20:50:37.502Z,86.60
2018-08-09T20:53:07.730Z,85.80
2018-08-09T20:55:36.925Z,87.00
2018-08-09T20:58:07.336Z,87.30
2018-08-09T21:00:36.642Z,87.30
2018-08-09T21:03:06.404Z,87.00
2018-08-09T21:05:38.392Z,87.30
2018-08-09T21:08:09.816Z,87.10
2018-08-09T21:10:40.113Z,87.20
2018-08-09T21:13:10.748Z,87.60
2018-08-09T21:15:39.670Z,87.90
2018-08-09T21:18:09.508Z,87.70
2018-08-09T21:20:38.529Z,86.80
2018-08-09T21:23:08.452Z,86.50
2018-08-09T21:25:37.120Z,86.60
2018-08-09T21:28:05.942Z,85.80
2018-08-09T21:30:34.598Z,85.30
2018-08-09T21:33:03.459Z,84.70
2018-08-09T21:35:34.379Z,85.90
2018-08-09T21:38:03.322Z,86.00
2018-08-09T21:40:32.829Z,85.90
2018-08-09T21:43:04.890Z,87.10
2018-08-09T21:45:34.276Z,86.30
2018-08-09T21:48:03.207Z,86.00
2018-08-09T21:50:32.100Z,85.60
2018-08-09T21:53:02.797Z,85.90
2018-08-09T21:55:33.679Z,85.60
2018-08-09T21:58:03.119Z,85.30
2018-08-09T22:01:06.376Z,84.30
2018-08-09T22:03:37.068Z,85.00
2018-08-09T22:06:13.818Z,84.50
2018-08-09T22:08:48.401Z,84.10
2018-08-09T22:11:23.924Z,84.00
2018-08-09T22:14:00.496Z,82.60
2018-08-09T22:16:36.027Z,83.20
2018-08-09T22:19:10.270Z,83.50
2018-08-09T22:21:46.175Z,83.00
2018-08-09T22:24:15.745Z,83.90
2018-08-09T22:26:44.781Z,83.70
2018-08-09T22:29:14.326Z,83.40
2018-08-09T22:31:45.376Z,83.50
2018-08-09T22:34:13.966Z,82.90
2018-08-09T22:36:42.758Z,83.10
2018-08-09T22:39:13.209Z,82.90
2018-08-09T22:41:43.604Z,82.80
2018-08-09T22:44:17.340Z,82.00
2018-08-09T22:46:47.603Z,82.00
2018-08-09T22:49:17.734Z,81.90
2018-08-09T22:51:48.429Z,80.30
2018-08-09T22:54:17.831Z,81.60
2018-08-09T22:56:46.330Z,80.70
2018-08-09T22:59:20.051Z,81.10
2018-08-09T23:01:49.425Z,80.10
2018-08-09T23:04:19.303Z,80.40
2018-08-09T23:06:48.601Z,79.60
2018-08-09T23:09:19.525Z,80.10
2018-08-09T23:11:49.821Z,80.70
2018-08-09T23:14:19.793Z,80.00
2018-08-09T23:16:50.600Z,81.20
2018-08-09T23:19:19.468Z,80.60
2018-08-09T23:21:48.171Z,81.00
2018-08-09T23:24:18.410Z,80.70
2018-08-09T23:26:48.647Z,80.50
2018-08-09T23:29:19.321Z,81.20
2018-08-09T23:31:52.358Z,79.40
2018-08-09T23:34:21.357Z,80.20
2018-08-09T23:36:51.057Z,80.00
2018-08-09T23:39:20.933Z,79.60
2018-08-09T23:41:51.525Z,79.30
2018-08-09T23:44:20.435Z,79.40
2018-08-09T23:46:50.377Z,80.50
2018-08-09T23:49:19.403Z,80.80
2018-08-09T23:51:49.225Z,80.50
2018-08-09T23:54:18.056Z,80.90
2018-08-09T23:56:48.750Z,80.20
2018-08-09T23:59:18.578Z,80.50
